Flight Track Log - Related Links

Times and Time Zones

All times are in EDT time to prevent confusion due to time zone crossing. See the EGF4908 flight status page for this flight to view local times or setup timezone preferences in your user account.

Time Position Orientation Groundspeed Altitude Reporting Facility
EDT Latitude Longitude Course Direction KTS MPH feet Rate Location/Type
Mon 18:07:08 40.7333 -73.8333 72° East 178 205 2,100  Level New TRACON
Mon 18:08:15 40.7500 -73.7667 29° Northeast 252 290 4,800 2,505 Climbing New TRACON
Mon 18:08:51 40.7839 -73.7419 29° Northeast 250 288 6,400 2,188 Climbing Boston Center
Mon 18:09:51 40.8533 -73.6914 26° Northeast 269 310 8,300 1,900 Climbing Boston Center
Mon 18:10:51 40.9331 -73.6406 24° Northeast 295 339 10,200 1,600 Climbing Boston Center
Mon 18:11:51 41.0169 -73.5900 24° Northeast 335 386 11,500 1,400 Climbing Boston Center
Mon 18:12:51 41.1261 -73.5258 24° Northeast 384 442 13,000 1,500 Climbing Boston Center
Mon 18:13:51 41.2369 -73.4614 24° Northeast 416 479 14,500 1,350 Climbing Boston Center
Mon 18:14:51 41.3481 -73.3942 23° Northeast 429 494 15,700 1,300 Climbing Boston Center
Mon 18:15:51 41.4653 -73.3264 41° Northeast 440 506 17,100 1,600 Climbing Boston Center
Mon 18:16:51 41.5517 -73.2250 33° Northeast 447 514 18,900 1,750 Climbing Boston Center
Mon 18:17:51 41.6667 -73.1264 359° North 436 502 20,600 1,500 Climbing Boston Center
Mon 18:18:51 41.7939 -73.1306 351° North 434 499 21,900 1,400 Climbing Boston Center
Mon 18:19:51 41.9167 -73.1569 352° North 441 507 23,400 1,550 Climbing Boston Center
Mon 18:20:51 42.0458 -73.1808 353° North 446 513 25,000 1,600 Climbing Boston Center
Mon 18:21:51 42.1728 -73.2019 353° North 453 521 26,600 1,600 Climbing Boston Center
Mon 18:22:51 42.2978 -73.2231 355° North 453 521 28,200 1,200 Climbing Boston Center
Mon 18:23:51 42.4308 -73.2389 352° North 459 528 29,000 400 Climbing Boston Center
Mon 18:24:51 42.5661 -73.2661 351° North 474 545 29,000  Level Boston Center
Mon 18:25:51 42.7056 -73.2961 353° North 490 564 29,000  Level Boston Center
Mon 18:26:51 42.8514 -73.3208 353° North 511 588 29,000 600 Level Boston Center
Mon 18:27:51 42.9969 -73.3456 356° North 523 602 30,200 1,000 Climbing Boston Center
Mon 18:28:51 43.1386 -73.3592 355° North 523 602 31,000 400 Climbing Boston Center
Mon 18:29:51 43.2886 -73.3756 355° North 518 596 31,000  Level Boston Center
Mon 18:30:51 43.4364 -73.3922 356° North 524 603 31,000  Level Boston Center
Mon 18:31:51 43.5675 -73.4058 355° North 524 603 31,000  Level Boston Center
Mon 18:32:51 43.7153 -73.4225 356° North 524 603 31,000  Level Boston Center
Mon 18:33:51 43.8633 -73.4364 356° North 529 609 31,000  Level Boston Center
Mon 18:34:51 44.0069 -73.4503 355° North 529 609 31,000 -100 Level Boston Center
Mon 18:35:51 44.1547 -73.4672 356° North 529 609 30,800 -1,150 Descending Boston Center
Mon 18:36:51 44.2983 -73.4814 355° North 529 609 28,700 -2,200 Descending Boston Center
Mon 18:37:51 44.4544 -73.5017 356° North 542 624 26,400 -2,400 Descending Boston Center
Mon 18:38:51 44.6064 -73.5161 20° North 547 629 23,900 -2,150 Descending Boston Center
Mon 18:39:51 44.7297 -73.4539 69° East 524 603 22,100 -1,800 Descending Boston Center
Mon 18:40:51 44.7706 -73.3056 74° East 403 464 20,300 -1,550 Descending Boston Center
Mon 18:41:51 44.7964 -73.1742 147° Southeast 364 419 19,000 -650 Descending Boston Center
Mon 18:42:51 44.7386 -73.1208 178° South 226 260 19,000  Level Boston Center
Mon 18:43:51 44.6719 -73.1172 278° West 183 211 19,000  Level Boston Center
Mon 18:44:51 44.6836 -73.2342 299° West 141 162 19,000  Level Boston Center
Mon 18:45:51 44.7306 -73.3547 319° Northwest 252 290 19,000 -400 Level Boston Center
Mon 18:46:51 44.8047 -73.4464 353° North 303 349 18,200 -1,200 Descending Boston Center
Mon 18:47:51 44.9192 -73.4661 57° Northeast 345 397 16,600 -1,650 Descending Boston Center
Mon 18:48:51 44.9639 -73.3669 151° Southeast 267 307 14,900 -1,700 Descending Boston Center
Mon 18:49:51 44.8997 -73.3161 111° Southeast 104 120 13,200 -1,600 Descending Boston Center
Mon 18:50:51 44.8692 -73.2017 72° East 221 254 11,700 -1,500 Descending Boston Center
Mon 18:51:51 44.9014 -73.0583 68° East 277 319 10,200 -1,500 Descending Boston Center
Mon 18:52:51 44.9353 -72.9386 22° Northeast 308 354 8,700 -1,100 Descending Boston Center
Mon 18:53:51 45.0061 -72.8981 342° North 265 305 8,000 -344 Descending Boston Center
Mon 18:54:53 45.0833 -72.9333 317° Northwest 290 334 8,000  Level Montreal Center
Mon 18:55:53 45.1333 -73.0000 325° Northwest 290 334 8,000  Level Montreal Center
Mon 18:56:53 45.2000 -73.0667 352° North 290 334 8,000  Level Montreal Center
Mon 18:57:53 45.2833 -73.0833 352° North 310 357 8,000 -450 Level Montreal Center
Mon 18:58:53 45.3667 -73.1000 North 300 345 7,100 -800 Descending Montreal Center
Mon 18:59:53 45.4500 -73.0833 10° North 290 334 6,400 -550 Descending Montreal Center
Mon 19:00:53 45.5167 -73.0667 332° Northwest 300 345 6,000 -200 Descending Montreal Center
Mon 19:01:53 45.5833 -73.1167 270° West 290 334 6,000  Level Montreal Center
Mon 19:02:53 45.5833 -73.2167 234° Southwest 240 276 6,000  Level Montreal Center
Mon 19:03:53 45.5500 -73.2833 240° Southwest 230 265 6,000  Level Montreal Center
Mon 19:04:53 45.5167 -73.3667 335° Northwest 220 253 6,000 -100 Level Montreal Center
Mon 19:05:53 45.5667 -73.4000 10° North 250 288 5,800 -500 Descending Montreal Center
Mon 19:06:53 45.6333 -73.3833 314° West 270 311 5,000 -950 Descending Montreal Center
Mon 19:07:53 45.6667 -73.4333 250° West 180 207 3,900 -1,000 Descending Montreal Center
Mon 19:08:53 45.6500 -73.5000 226° Southwest 170 196 3,000 -450 Descending Montreal Center
Mon 19:09:53 45.6167 -73.5500 199° South 160 184 3,000 -50 Level Montreal Center
Mon 19:10:53 45.5833 -73.5667 226° Southwest 160 184 2,900 -450 Descending Montreal Center
Mon 19:11:53 45.5500 -73.6167 226° Southwest 160 184 2,100 -750 Descending Montreal Center
Mon 19:12:53 45.5167 -73.6667 234° Southwest 140 161 1,400 -650 Descending Montreal Center
Mon 19:13:53 45.5000 -73.7000 199° South 110 127 800 -600 Descending Montreal Center
Mon 19:14:53 45.4667 -73.7167 234° Southwest 110 127 200 -350 Descending Montreal Center
Mon 19:15:53 45.4500 -73.7500 234° Southwest 70 81 100 -100 Descending Montreal Center

Login

Don't have an account? Register now (free) for customized features, flight alerts, and more!